Time;durP1;ratioP1;P1;durP2;ratioP2;P2;SDS_P1;SDS_P2;PMS_P1;PMS_P2;Temp;Humidity;BMP_temperature;BMP_pressure;BME280_temperature;BME280_humidity;BME280_pressure;Samples;Min_cycle;Max_cycle;Signal;HPM_P1;HPM_P2
2023/12/10 00:01:00;;;;;;;;;;;;;;;1.03;84.67;100487.65;106574;1257;124507;-85
2023/12/10 00:03:47;;;;;;;;;;;;;;;1.02;85.01;100486.78;106781;1255;74325;-84
2023/12/10 00:06:14;;;;;;;;;;;;;;;1.04;85.08;100494.84;106490;1255;125577;-84
2023/12/10 00:08:40;;;;;;;;;;;;;;;1.06;85.39;100489.77;106539;1256;72749;-85
2023/12/10 00:11:07;;;;;;;;;;;;;;;1.09;85.49;100494.77;106638;1256;61333;-86
2023/12/10 00:13:34;;;;;;;;;;;;;;;1.11;85.58;100490.42;106467;1261;125345;-86
2023/12/10 00:16:03;;;;;;;;;;;;;;;1.14;85.45;100492.67;106626;1256;74708;-86
2023/12/10 00:18:30;;;;;;;;;;;;;;;1.16;85.51;100491.38;106600;1256;125759;-79
2023/12/10 00:20:56;;;;;;;;;;;;;;;1.14;85.39;100491.44;106687;1256;72436;-79
2023/12/10 00:23:23;;;;;;;;;;;;;;;1.15;85.78;100487.15;106505;1256;61400;-86
2023/12/10 00:25:50;;;;;;;;;;;;;;;1.16;85.51;100489.70;106710;1256;124511;-87
2023/12/10 00:28:17;;;;;;;;;;;;;;;1.19;85.85;100482.73;106754;1257;74510;-79
2023/12/10 00:30:45;;;;;;;;;;;;;;;1.20;85.86;100477.42;106444;1257;124880;-87
2023/12/10 00:33:13;;;;;;;;;;;;;;;1.21;85.76;100473.36;106800;1256;71383;-78
2023/12/10 00:35:40;;;;;;;;;;;;;;;1.24;85.92;100471.27;106738;1255;59229;-78
2023/12/10 00:38:06;;;;;;;;;;;;;;;1.26;86.05;100475.90;106670;1259;124352;-78
2023/12/10 00:40:33;;;;;;;;;;;;;;;1.27;86.03;100473.85;106907;1256;74275;-78
2023/12/10 00:43:00;;;;;;;;;;;;;;;1.25;85.81;100471.83;106969;1259;124929;-79
2023/12/10 00:45:27;;;;;;;;;;;;;;;1.23;85.92;100468.11;106552;1256;71821;-79
2023/12/10 00:47:54;;;;;;;;;;;;;;;1.22;86.12;100464.60;106547;1260;125174;-78
2023/12/10 00:50:20;;;;;;;;;;;;;;;1.23;86.19;100466.70;106619;1256;61268;-85
2023/12/10 00:52:47;;;;;;;;;;;;;;;1.23;86.24;100466.03;106678;1260;73354;-78
2023/12/10 00:55:15;;;;;;;;;;;;;;;1.22;86.23;100461.30;106549;1256;124528;-78
2023/12/10 00:57:41;;;;;;;;;;;;;;;1.23;86.46;100459.84;105913;1258;71260;-78
2023/12/10 01:00:08;;;;;;;;;;;;;;;1.26;86.60;100463.98;106424;1260;124676;-78
2023/12/10 01:02:35;;;;;;;;;;;;;;;1.27;86.52;100465.55;106311;1256;61194;-78
2023/12/10 01:05:02;;;;;;;;;;;;;;;1.27;86.58;100468.54;105984;1260;74732;-78
2023/12/10 01:07:29;;;;;;;;;;;;;;;1.27;86.63;100468.01;106386;1256;124481;-83
2023/12/10 01:09:56;;;;;;;;;;;;;;;1.28;86.83;100467.05;105953;1260;71643;-85
2023/12/10 01:12:23;;;;;;;;;;;;;;;1.29;86.73;100471.05;106552;1261;124732;-86
2023/12/10 01:14:52;;;;;;;;;;;;;;;1.28;86.89;100468.76;106731;1256;61064;-79
2023/12/10 01:17:19;;;;;;;;;;;;;;;1.29;86.91;100469.15;106485;1256;73410;-78
2023/12/10 01:19:45;;;;;;;;;;;;;;;1.28;86.67;100471.01;106694;1260;125486;-87
2023/12/10 01:22:12;;;;;;;;;;;;;;;1.30;86.83;100472.13;106617;1259;72903;-79
2023/12/10 01:24:39;;;;;;;;;;;;;;;1.32;86.87;100467.44;106373;1255;124564;-78
2023/12/10 01:27:05;;;;;;;;;;;;;;;1.35;86.87;100475.89;106526;1259;61213;-78
2023/12/10 01:29:32;;;;;;;;;;;;;;;1.36;87.02;100481.85;106666;1260;74387;-77
2023/12/10 01:31:59;;;;;;;;;;;;;;;1.39;86.99;100483.17;106433;1256;124876;-85
2023/12/10 01:34:26;;;;;;;;;;;;;;;1.37;86.75;100479.96;106623;1256;72417;-78
2023/12/10 01:36:53;;;;;;;;;;;;;;;1.38;86.99;100483.30;106358;1256;124785;-77
2023/12/10 01:39:20;;;;;;;;;;;;;;;1.40;86.95;100480.66;106593;1257;63313;-77
2023/12/10 01:41:46;;;;;;;;;;;;;;;1.43;87.03;100480.11;105967;1260;74388;-78
2023/12/10 01:44:13;;;;;;;;;;;;;;;1.44;86.82;100481.58;106289;1262;67503;-78
2023/12/10 01:46:40;;;;;;;;;;;;;;;1.44;86.89;100476.58;105886;1256;71588;-84
2023/12/10 01:49:07;;;;;;;;;;;;;;;1.43;86.64;100473.06;105951;1260;124770;-85
2023/12/10 01:51:34;;;;;;;;;;;;;;;1.44;86.74;100467.21;106714;1256;61239;-78
2023/12/10 01:54:01;;;;;;;;;;;;;;;1.45;86.71;100463.85;106534;1256;124864;-77
2023/12/10 01:56:28;;;;;;;;;;;;;;;1.47;86.88;100460.45;105867;1256;66333;-77
2023/12/10 01:58:55;;;;;;;;;;;;;;;1.48;86.82;100468.01;106089;1258;73297;-77
2023/12/10 02:01:23;;;;;;;;;;;;;;;1.49;86.81;100463.74;105664;1257;124905;-77
2023/12/10 02:03:50;;;;;;;;;;;;;;;1.50;86.69;100462.23;106594;1260;61232;-78
2023/12/10 02:06:17;;;;;;;;;;;;;;;1.51;86.57;100463.66;106435;1257;124858;-78
2023/12/10 02:08:44;;;;;;;;;;;;;;;1.52;86.82;100467.15;106481;1256;65269;-87
2023/12/10 02:11:11;;;;;;;;;;;;;;;1.53;86.64;100465.69;106678;1256;71400;-87
2023/12/10 02:13:38;;;;;;;;;;;;;;;1.53;86.66;100461.71;106455;1260;124859;-85
2023/12/10 02:16:06;;;;;;;;;;;;;;;1.54;86.60;100460.36;106749;1260;61230;-85
2023/12/10 02:18:33;;;;;;;;;;;;;;;1.55;86.65;100454.02;106634;1256;124606;-84
2023/12/10 02:21:00;;;;;;;;;;;;;;;1.55;86.57;100450.75;106637;1260;66314;-85
2023/12/10 02:23:38;;;;;;;;;;;;;;;1.53;86.38;100445.10;106678;1255;71984;-78
2023/12/10 02:26:05;;;;;;;;;;;;;;;1.55;86.38;100442.80;105944;1260;124240;-78
2023/12/10 02:28:32;;;;;;;;;;;;;;;1.57;86.56;100443.73;105826;1256;62613;-77
2023/12/10 02:30:59;;;;;;;;;;;;;;;1.58;86.49;100442.77;105940;1260;124841;-77
2023/12/10 02:33:25;;;;;;;;;;;;;;;1.60;86.43;100447.18;105768;1256;65609;-78
2023/12/10 02:35:52;;;;;;;;;;;;;;;1.60;86.51;100445.48;106361;1261;124789;-85
2023/12/10 02:38:21;;;;;;;;;;;;;;;1.61;86.53;100444.52;106626;1255;61352;-79
2023/12/10 02:40:48;;;;;;;;;;;;;;;1.63;86.58;100444.77;106424;1258;61332;-79
2023/12/10 02:43:16;;;;;;;;;;;;;;;1.64;86.52;100447.10;106425;1258;124485;-78
2023/12/10 02:45:43;;;;;;;;;;;;;;;1.66;86.46;100447.02;106894;1261;64979;-77
2023/12/10 02:48:10;;;;;;;;;;;;;;;1.68;86.41;100444.00;106559;1256;124877;-78
2023/12/10 02:50:37;;;;;;;;;;;;;;;1.67;86.47;100443.64;106602;1257;59247;-77
2023/12/10 02:53:03;;;;;;;;;;;;;;;1.66;86.51;100445.15;106752;1257;61247;-77
2023/12/10 02:55:31;;;;;;;;;;;;;;;1.70;86.47;100447.23;106360;1255;124790;-86
2023/12/10 02:57:57;;;;;;;;;;;;;;;1.72;86.34;100448.73;107041;1258;65016;-84
2023/12/10 03:00:24;;;;;;;;;;;;;;;1.73;86.45;100442.39;106479;1260;124732;-77
2023/12/10 03:02:51;;;;;;;;;;;;;;;1.73;86.35;100439.14;106741;1260;61274;-85
2023/12/10 03:05:18;;;;;;;;;;;;;;;1.74;86.33;100438.14;107125;1263;61164;-85
2023/12/10 03:07:45;;;;;;;;;;;;;;;1.77;86.43;100440.52;106945;1262;124930;-85
2023/12/10 03:10:11;;;;;;;;;;;;;;;1.78;86.22;100439.87;106867;1256;64974;-78
2023/12/10 03:12:38;;;;;;;;;;;;;;;1.77;86.11;100438.61;106968;1262;124566;-85
2023/12/10 03:15:07;;;;;;;;;;;;;;;1.77;86.33;100442.45;106609;1264;61242;-79
2023/12/10 03:17:34;;;;;;;;;;;;;;;1.79;86.29;100444.95;106470;1261;61092;-78
2023/12/10 03:20:01;;;;;;;;;;;;;;;1.80;86.15;100446.38;106684;1257;124634;-77
2023/12/10 03:22:28;;;;;;;;;;;;;;;1.81;86.37;100444.20;106594;1256;64952;-84
2023/12/10 03:24:54;;;;;;;;;;;;;;;1.82;86.30;100444.41;106551;1260;124474;-84
2023/12/10 03:27:21;;;;;;;;;;;;;;;1.82;86.25;100440.96;106708;1259;61148;-84
2023/12/10 03:29:48;;;;;;;;;;;;;;;1.82;86.28;100443.61;106677;1257;61233;-84
2023/12/10 03:32:15;;;;;;;;;;;;;;;1.85;86.27;100445.98;106601;1261;73448;-84
2023/12/10 03:34:41;;;;;;;;;;;;;;;1.85;86.27;100441.86;106662;1258;67511;-84
2023/12/10 03:37:08;;;;;;;;;;;;;;;1.87;86.26;100443.35;106460;1260;124995;-79
2023/12/10 03:39:35;;;;;;;;;;;;;;;1.89;86.45;100438.78;106574;1258;61228;-85
2023/12/10 03:42:02;;;;;;;;;;;;;;;1.92;86.28;100434.60;106382;1264;124709;-85
2023/12/10 03:44:31;;;;;;;;;;;;;;;1.93;86.03;100436.38;106441;1261;75270;-85
2023/12/10 03:47:01;;;;;;;;;;;;;;;1.94;86.23;100434.02;106739;1260;67707;-85
2023/12/10 03:49:28;;;;;;;;;;;;;;;1.93;86.17;100431.38;106584;1262;124585;-86
2023/12/10 03:51:55;;;;;;;;;;;;;;;1.93;86.10;100430.73;106643;1261;61241;-85
2023/12/10 03:54:22;;;;;;;;;;;;;;;1.95;86.28;100431.15;106556;1258;124763;-85
2023/12/10 03:56:49;;;;;;;;;;;;;;;1.97;86.19;100440.77;106673;1262;74798;-77
2023/12/10 03:59:15;;;;;;;;;;;;;;;1.99;86.07;100443.27;106680;1257;66291;-77
2023/12/10 04:01:43;;;;;;;;;;;;;;;2.01;86.17;100445.45;105824;1260;124527;-78
2023/12/10 04:04:09;;;;;;;;;;;;;;;2.02;86.16;100449.33;106632;1258;61612;-77
2023/12/10 04:06:40;;;;;;;;;;;;;;;2.01;86.02;100452.58;105884;1257;124925;-78
2023/12/10 04:09:07;;;;;;;;;;;;;;;1.99;85.97;100450.39;106480;1257;74764;-77
2023/12/10 04:11:34;;;;;;;;;;;;;;;1.99;85.96;100444.52;106643;1260;65247;-78
2023/12/10 04:14:01;;;;;;;;;;;;;;;1.99;85.87;100445.52;106380;1257;124794;-78
2023/12/10 04:16:29;;;;;;;;;;;;;;;1.99;85.96;100446.73;106550;1257;59532;-77
2023/12/10 04:18:56;;;;;;;;;;;;;;;1.99;85.96;100449.88;105779;1257;124687;-77
2023/12/10 04:21:22;;;;;;;;;;;;;;;1.98;85.82;100451.40;105862;1262;73386;-77
2023/12/10 04:23:49;;;;;;;;;;;;;;;1.98;86.00;100449.80;106319;1258;123798;-84
2023/12/10 04:26:16;;;;;;;;;;;;;;;1.98;85.87;100441.70;106467;1257;72733;-86
2023/12/10 04:28:43;;;;;;;;;;;;;;;2.00;86.00;100443.32;106523;1257;61280;-86
2023/12/10 04:31:09;;;;;;;;;;;;;;;1.99;86.00;100442.25;106390;1257;124932;-86
2023/12/10 04:33:36;;;;;;;;;;;;;;;1.98;85.91;100437.02;106621;1257;74719;-85
2023/12/10 04:36:03;;;;;;;;;;;;;;;1.98;85.92;100438.95;106523;1258;124934;-86
2023/12/10 04:38:30;;;;;;;;;;;;;;;1.99;85.91;100438.59;106736;1261;71460;-85
2023/12/10 04:40:57;;;;;;;;;;;;;;;1.99;85.95;100437.56;106698;1261;61382;-85
2023/12/10 04:43:24;;;;;;;;;;;;;;;2.00;85.86;100436.77;106757;1269;123568;-78
2023/12/10 04:45:51;;;;;;;;;;;;;;;2.01;85.84;100440.23;106697;1260;74531;-77
2023/12/10 04:48:18;;;;;;;;;;;;;;;1.99;85.80;100438.98;106741;1254;124831;-78
2023/12/10 04:50:44;;;;;;;;;;;;;;;1.99;85.86;100439.33;106841;1254;72722;-84
2023/12/10 04:53:11;;;;;;;;;;;;;;;1.98;85.74;100440.30;106678;1254;61129;-86
2023/12/10 04:55:38;;;;;;;;;;;;;;;1.96;85.69;100437.95;106778;1254;124712;-85
2023/12/10 04:58:04;;;;;;;;;;;;;;;1.97;85.76;100435.21;106916;1256;72384;-85
2023/12/10 05:00:31;;;;;;;;;;;;;;;1.97;85.79;100436.24;106687;1254;124359;-85
2023/12/10 05:02:58;;;;;;;;;;;;;;;1.96;85.75;100440.85;106917;1259;72189;-85
2023/12/10 05:05:24;;;;;;;;;;;;;;;1.95;85.81;100439.09;106823;1254;60115;-85
2023/12/10 05:07:51;;;;;;;;;;;;;;;1.94;85.74;100436.61;106691;1254;124577;-85
2023/12/10 05:10:18;;;;;;;;;;;;;;;1.93;85.74;100439.55;106883;1255;74745;-85
2023/12/10 05:12:45;;;;;;;;;;;;;;;1.92;85.67;100441.71;106893;1254;124489;-85
2023/12/10 05:15:12;;;;;;;;;;;;;;;1.93;85.79;100444.56;107113;1257;71364;-85
2023/12/10 05:17:39;;;;;;;;;;;;;;;1.92;85.78;100439.13;107246;1257;61152;-84
2023/12/10 05:20:06;;;;;;;;;;;;;;;1.92;85.76;100439.27;107735;1256;125934;-84
2023/12/10 05:22:33;;;;;;;;;;;;;;;1.90;85.53;100435.02;106365;1258;75805;-84
2023/12/10 05:24:59;;;;;;;;;;;;;;;1.89;85.70;100435.34;106409;1254;125447;-84
2023/12/10 05:27:32;;;;;;;;;;;;;;;1.88;85.77;100436.48;107361;1254;71125;-83
2023/12/10 05:29:59;;;;;;;;;;;;;;;1.86;85.65;100432.91;107073;1254;125438;-83
2023/12/10 05:32:27;;;;;;;;;;;;;;;1.86;85.57;100435.15;107691;1257;62332;-83
2023/12/10 05:34:54;;;;;;;;;;;;;;;1.86;85.87;100434.96;106872;1254;74712;-84
2023/12/10 05:37:20;;;;;;;;;;;;;;;1.84;85.74;100427.63;106718;1260;124550;-86
2023/12/10 05:39:47;;;;;;;;;;;;;;;1.83;85.61;100425.45;106901;1259;71759;-85
2023/12/10 05:42:14;;;;;;;;;;;;;;;1.82;85.65;100424.02;106708;1254;124698;-86
2023/12/10 05:44:41;;;;;;;;;;;;;;;1.79;85.60;100423.70;106873;1258;61276;-87
2023/12/10 05:47:08;;;;;;;;;;;;;;;1.78;85.65;100419.45;106950;1254;74705;-86
2023/12/10 05:49:35;;;;;;;;;;;;;;;1.74;85.87;100421.21;106808;1254;124905;-86
2023/12/10 05:52:01;;;;;;;;;;;;;;;1.73;85.69;100425.30;106962;1254;72555;-86
2023/12/10 05:54:28;;;;;;;;;;;;;;;1.73;85.85;100423.55;106823;1254;124811;-86
2023/12/10 05:56:55;;;;;;;;;;;;;;;1.73;85.78;100425.97;106760;1262;61844;-86
2023/12/10 05:59:22;;;;;;;;;;;;;;;1.73;85.77;100423.36;106918;1254;73680;-86
2023/12/10 06:01:48;;;;;;;;;;;;;;;1.71;85.71;100424.27;106888;1254;124494;-86
2023/12/10 06:04:15;;;;;;;;;;;;;;;1.70;85.90;100422.20;106850;1257;73656;-82
2023/12/10 06:06:42;;;;;;;;;;;;;;;1.71;85.92;100420.14;105929;1260;124645;-86
2023/12/10 06:09:09;;;;;;;;;;;;;;;1.71;85.74;100417.38;106836;1256;60000;-85
2023/12/10 06:11:36;;;;;;;;;;;;;;;1.72;86.11;100410.38;106742;1255;74402;-86
2023/12/10 06:14:02;;;;;;;;;;;;;;;1.72;85.79;100405.70;106769;1260;124982;-85
2023/12/10 06:16:29;;;;;;;;;;;;;;;1.71;85.84;100408.40;106792;1257;73360;-88
2023/12/10 06:18:56;;;;;;;;;;;;;;;1.71;85.98;100413.92;106701;1255;125726;-83
2023/12/10 06:21:23;;;;;;;;;;;;;;;1.71;85.90;100415.16;106840;1260;61132;-83
2023/12/10 06:23:49;;;;;;;;;;;;;;;1.70;85.77;100423.05;106517;1257;124962;-82
2023/12/10 06:26:16;;;;;;;;;;;;;;;1.69;85.78;100424.00;106729;1260;66542;-83
2023/12/10 06:28:43;;;;;;;;;;;;;;;1.70;85.79;100430.44;106809;1255;71069;-83
2023/12/10 06:31:09;;;;;;;;;;;;;;;1.70;85.89;100429.44;106833;1257;124656;-85
2023/12/10 06:33:47;;;;;;;;;;;;;;;1.72;85.98;100432.48;108346;1254;61366;-85
2023/12/10 06:36:14;;;;;;;;;;;;;;;1.73;85.76;100436.50;106737;1254;124979;-85
2023/12/10 06:38:40;;;;;;;;;;;;;;;1.71;85.79;100438.15;106668;1261;66350;-85
2023/12/10 06:41:07;;;;;;;;;;;;;;;1.68;85.60;100439.17;106882;1254;73047;-85
2023/12/10 06:43:34;;;;;;;;;;;;;;;1.63;85.55;100439.58;106811;1254;124559;-85
2023/12/10 06:46:02;;;;;;;;;;;;;;;1.56;85.59;100443.20;106918;1254;61177;-84
2023/12/10 06:48:29;;;;;;;;;;;;;;;1.47;85.27;100450.11;106682;1254;124868;-85
2023/12/10 06:50:55;;;;;;;;;;;;;;;1.38;85.20;100453.23;106804;1260;66320;-78
2023/12/10 06:53:22;;;;;;;;;;;;;;;1.32;85.44;100457.73;106497;1257;194562;-78
2023/12/10 06:55:49;;;;;;;;;;;;;;;1.30;85.57;100458.99;106575;1257;124939;-79
2023/12/10 06:58:19;;;;;;;;;;;;;;;1.30;85.68;100462.30;106746;1257;61355;-77
2023/12/10 07:00:46;;;;;;;;;;;;;;;1.34;85.92;100463.58;105826;1254;125287;-81
2023/12/10 07:03:13;;;;;;;;;;;;;;;1.41;86.05;100467.41;106919;1257;66633;-85
2023/12/10 07:05:40;;;;;;;;;;;;;;;1.47;86.18;100469.48;106873;1257;72841;-85
2023/12/10 07:08:09;;;;;;;;;;;;;;;1.49;85.95;100469.41;106926;1259;125372;-85
2023/12/10 07:10:36;;;;;;;;;;;;;;;1.50;85.90;100469.65;107018;1258;61230;-88
2023/12/10 07:13:03;;;;;;;;;;;;;;;1.51;85.97;100473.72;106702;1257;125909;-80
2023/12/10 07:15:30;;;;;;;;;;;;;;;1.52;85.81;100476.01;106867;1258;66240;-81
2023/12/10 07:17:57;;;;;;;;;;;;;;;1.52;85.93;100484.64;106733;1254;125361;-81
2023/12/10 07:20:24;;;;;;;;;;;;;;;1.52;85.84;100488.07;106799;1254;61292;-82
2023/12/10 07:22:51;;;;;;;;;;;;;;;1.52;85.94;100483.95;107128;1254;61209;-81
2023/12/10 07:25:18;;;;;;;;;;;;;;;1.53;85.75;100478.11;107211;1259;124989;-82
2023/12/10 07:27:46;;;;;;;;;;;;;;;1.53;85.71;100474.30;106555;1255;66082;-82
2023/12/10 07:30:13;;;;;;;;;;;;;;;1.53;85.78;100479.64;106423;1257;125216;-82
2023/12/10 07:32:39;;;;;;;;;;;;;;;1.53;85.66;100486.60;106671;1257;61249;-81
2023/12/10 07:35:06;;;;;;;;;;;;;;;1.55;85.90;100493.14;106729;1259;61232;-81
2023/12/10 07:37:33;;;;;;;;;;;;;;;1.59;85.84;100491.44;106506;1258;125130;-81
2023/12/10 07:40:00;;;;;;;;;;;;;;;1.62;85.95;100486.95;106817;1259;66264;-82
2023/12/10 07:42:26;;;;;;;;;;;;;;;1.66;85.84;100487.00;106521;1257;124792;-82
2023/12/10 07:44:53;;;;;;;;;;;;;;;1.69;85.92;100486.65;106643;1260;61324;-81
2023/12/10 07:47:20;;;;;;;;;;;;;;;1.73;85.85;100484.10;106628;1260;61304;-87
2023/12/10 07:49:47;;;;;;;;;;;;;;;1.77;85.97;100479.80;106666;1254;125071;-88
2023/12/10 07:52:14;;;;;;;;;;;;;;;1.80;85.78;100483.09;106712;1254;64011;-88
2023/12/10 07:54:40;;;;;;;;;;;;;;;1.81;85.75;100486.44;106571;1257;124649;-85
2023/12/10 07:57:07;;;;;;;;;;;;;;;1.83;85.72;100479.59;107098;1254;61253;-86
2023/12/10 07:59:42;;;;;;;;;;;;;;;1.83;85.68;100476.17;107091;1256;61246;-87
2023/12/10 08:02:09;;;;;;;;;;;;;;;1.84;85.61;100466.54;106697;1257;124393;-86
2023/12/10 08:04:36;;;;;;;;;;;;;;;1.87;85.52;100463.93;106843;1259;66568;-87
2023/12/10 08:07:03;;;;;;;;;;;;;;;1.90;85.46;100471.89;106537;1254;124896;-86
2023/12/10 08:09:34;;;;;;;;;;;;;;;1.92;85.60;100478.89;106476;1254;62764;-87
2023/12/10 08:12:01;;;;;;;;;;;;;;;1.94;85.49;100482.31;106712;1254;124949;-86
2023/12/10 08:14:28;;;;;;;;;;;;;;;1.95;85.42;100489.47;106538;1254;73529;-86
2023/12/10 08:16:58;;;;;;;;;;;;;;;1.99;85.42;100489.16;106655;1256;66049;-85
2023/12/10 08:19:29;;;;;;;;;;;;;;;2.02;85.49;100492.27;106718;1254;124753;-85
2023/12/10 08:21:56;;;;;;;;;;;;;;;2.06;85.47;100494.92;107062;1259;61354;-85
2023/12/10 08:24:26;;;;;;;;;;;;;;;2.09;85.49;100490.73;107003;1254;124784;-85
2023/12/10 08:26:53;;;;;;;;;;;;;;;2.13;85.34;100493.22;106934;1259;74629;-85
2023/12/10 08:29:20;;;;;;;;;;;;;;;2.18;85.48;100500.42;106994;1254;65565;-86
2023/12/10 08:31:48;;;;;;;;;;;;;;;2.22;85.31;100510.16;106713;1259;124744;-75
2023/12/10 08:34:16;;;;;;;;;;;;;;;2.26;85.21;100503.59;107296;1254;61369;-80
2023/12/10 08:36:43;;;;;;;;;;;;;;;2.30;85.29;100499.14;106808;1256;124821;-80
2023/12/10 08:39:09;;;;;;;;;;;;;;;2.35;85.10;100507.88;106851;1257;74439;-80
2023/12/10 08:41:37;;;;;;;;;;;;;;;2.38;85.13;100500.23;106786;1256;65977;-81
2023/12/10 08:44:03;;;;;;;;;;;;;;;2.38;84.95;100502.49;106764;1256;124633;-81
2023/12/10 08:46:30;;;;;;;;;;;;;;;2.40;84.80;100510.38;106872;1259;59297;-81
2023/12/10 08:48:59;;;;;;;;;;;;;;;2.40;84.88;100500.37;106835;1254;124550;-88
2023/12/10 08:51:26;;;;;;;;;;;;;;;2.45;84.89;100504.63;106764;1254;74446;-87
2023/12/10 08:53:53;;;;;;;;;;;;;;;2.47;84.75;100513.22;106861;1254;125716;-87
2023/12/10 08:56:20;;;;;;;;;;;;;;;2.48;84.80;100506.54;106775;1258;72711;-86
2023/12/10 08:58:56;;;;;;;;;;;;;;;2.51;84.62;100507.34;106875;1254;59937;-84
2023/12/10 09:01:25;;;;;;;;;;;;;;;2.52;84.64;100506.92;106718;1254;124497;-87
2023/12/10 09:03:52;;;;;;;;;;;;;;;2.54;84.66;100505.63;106674;1256;73812;-85
2023/12/10 09:06:19;;;;;;;;;;;;;;;2.54;84.65;100503.89;106610;1260;124364;-86
2023/12/10 09:08:45;;;;;;;;;;;;;;;2.55;84.59;100509.48;106968;1256;73318;-85
2023/12/10 09:11:12;;;;;;;;;;;;;;;2.53;84.45;100504.52;106968;1253;61157;-86
2023/12/10 09:13:39;;;;;;;;;;;;;;;2.52;84.40;100507.95;106641;1256;124038;-85
2023/12/10 09:16:06;;;;;;;;;;;;;;;2.51;84.37;100503.21;106451;1260;73765;-83
2023/12/10 09:18:33;;;;;;;;;;;;;;;2.51;84.43;100506.17;106265;1256;124092;-85
2023/12/10 09:20:59;;;;;;;;;;;;;;;2.49;84.33;100505.72;106724;1257;70155;-86
2023/12/10 09:23:26;;;;;;;;;;;;;;;2.48;84.40;100505.85;106660;1254;61292;-87
2023/12/10 09:25:53;;;;;;;;;;;;;;;2.48;84.43;100507.06;106699;1256;124429;-84
2023/12/10 09:28:20;;;;;;;;;;;;;;;2.49;84.62;100508.85;106616;1260;73401;-79
2023/12/10 09:30:46;;;;;;;;;;;;;;;2.51;84.47;100508.25;106541;1254;125250;-79
2023/12/10 09:33:13;;;;;;;;;;;;;;;2.52;84.49;100503.64;106603;1256;71755;-79
2023/12/10 09:35:40;;;;;;;;;;;;;;;2.55;84.37;100499.42;106587;1255;61317;-80
2023/12/10 09:38:06;;;;;;;;;;;;;;;2.56;84.32;100502.08;106566;1257;124503;-86
2023/12/10 09:40:33;;;;;;;;;;;;;;;2.59;84.59;100500.14;106929;1254;73420;-86
2023/12/10 09:43:01;;;;;;;;;;;;;;;2.63;84.50;100498.28;106751;1254;123566;-86
2023/12/10 09:45:28;;;;;;;;;;;;;;;2.65;84.43;100491.12;106927;1257;71222;-86
2023/12/10 09:47:55;;;;;;;;;;;;;;;2.66;84.22;100488.08;106786;1254;124748;-84
2023/12/10 09:50:22;;;;;;;;;;;;;;;2.71;84.33;100493.52;106849;1254;61244;-84
2023/12/10 09:52:49;;;;;;;;;;;;;;;2.76;84.32;100494.45;106845;1254;73349;-83
2023/12/10 09:55:16;;;;;;;;;;;;;;;2.79;84.14;100497.58;106695;1259;124839;-83
2023/12/10 09:57:43;;;;;;;;;;;;;;;2.83;84.27;100491.35;106990;1254;80474;-93
2023/12/10 10:00:12;;;;;;;;;;;;;;;2.89;84.29;100488.08;107054;1256;61285;-94
2023/12/10 10:02:39;;;;;;;;;;;;;;;2.94;84.09;100484.84;103718;1261;2572379;-91
2023/12/10 10:05:24;;;;;;;;;;;;;;;2.97;83.91;100486.88;108272;1260;61221;-93
2023/12/10 10:27:32;;;;;;;81.50;49.50;;;;;;;3.35;83.27;100472.67;101771;1296;601147;-61
2023/12/10 10:29:58;;;;;;;87.40;52.40;;;;;;;3.39;83.18;100473.05;104084;1272;59302;-73
2023/12/10 10:32:25;;;;;;;93.80;53.60;;;;;;;3.44;83.26;100478.13;104769;1271;136985;-61
2023/12/10 10:34:52;;;;;;;88.30;54.30;;;;;;;3.46;83.19;100478.58;104061;1270;70480;-62
2023/12/10 10:37:19;;;;;;;92.00;54.40;;;;;;;3.47;83.12;100478.45;104250;1267;66167;-60
2023/12/10 10:39:49;;;;;;;97.20;58.80;;;;;;;3.49;83.24;100475.11;108088;1267;137354;-61
2023/12/10 10:42:19;;;;;;;108.60;63.50;;;;;;;3.53;83.17;100473.37;108092;1265;221140;-61
2023/12/10 10:44:48;;;;;;;105.00;63.20;;;;;;;3.56;83.02;100469.84;106053;1266;138074;-60
2023/12/10 10:47:18;;;;;;;101.80;58.40;;;;;;;3.55;82.72;100468.63;104238;1266;72548;-59
2023/12/10 10:49:47;;;;;;;90.70;56.50;;;;;;;3.55;82.79;100466.02;104330;1264;67350;-61
2023/12/10 10:52:19;;;;;;;89.10;56.90;;;;;;;3.59;82.76;100465.67;108309;1263;137555;-61
2023/12/10 10:54:47;;;;;;;96.50;57.30;;;;;;;3.64;82.82;100464.89;108498;1263;59673;-61
2023/12/10 10:57:35;;;;;;;86.70;53.10;;;;;;;3.68;82.67;100463.89;108200;1267;137657;-60
2023/12/10 11:00:21;;;;;;;90.80;55.20;;;;;;;3.74;82.53;100461.37;108311;1264;72245;-61
2023/12/10 11:02:54;;;;;;;88.60;55.00;;;;;;;3.76;82.40;100461.98;108301;1262;137606;-60
2023/12/10 11:05:31;;;;;;;92.80;56.80;;;;;;;3.80;82.29;100466.67;108521;1263;70947;-61
2023/12/10 11:07:57;;;;;;;96.20;56.80;;;;;;;3.80;82.14;100467.55;108420;1263;57518;-61
2023/12/10 11:10:24;;;;;;;97.90;58.00;;;;;;;3.81;82.17;100467.46;108437;1262;137005;-62
2023/12/10 11:12:53;;;;;;;91.20;56.40;;;;;;;3.85;82.16;100468.31;108543;1263;73989;-62
2023/12/10 11:15:20;;;;;;;90.60;56.50;;;;;;;3.87;82.00;100468.42;108230;1263;138106;-62
2023/12/10 11:17:59;;;;;;;93.20;58.60;;;;;;;3.87;81.91;100470.83;106728;1263;72701;-66
2023/12/10 11:20:36;;;;;;;95.40;56.80;;;;;;;3.87;81.85;100472.59;108271;1264;139161;-61
2023/12/10 11:23:13;;;;;;;94.00;58.80;;;;;;;3.87;81.68;100475.00;108432;1264;60979;-61
2023/12/10 11:25:40;;;;;;;99.30;58.60;;;;;;;3.89;81.73;100476.48;108399;1264;73068;-61
2023/12/10 11:28:14;;;;;;;90.80;56.50;;;;;;;3.90;81.62;100475.82;108347;1264;138245;-60
2023/12/10 11:30:42;;;;;;;92.80;57.20;;;;;;;3.88;81.53;100474.55;108184;1265;73836;-69
2023/12/10 11:33:09;;;;;;;93.90;56.00;;;;;;;3.91;81.50;100476.55;104271;1269;138640;-68
2023/12/10 11:35:36;;;;;;;91.20;55.20;;;;;;;3.91;81.55;100479.02;104816;1260;61778;-67
2023/12/10 11:38:04;;;;;;;99.20;57.30;;;;;;;3.90;81.33;100480.54;104803;1256;72303;-64
2023/12/10 11:40:31;;;;;;;91.30;55.60;;;;;;;3.88;81.36;100476.45;104657;1257;138197;-66
2023/12/10 11:43:05;;;;;;;89.40;53.10;;;;;;;3.87;81.30;100481.27;104733;1259;73105;-66
2023/12/10 11:45:32;;;;;;;88.80;55.70;;;;;;;3.84;81.30;100481.81;108804;1257;136957;-66
2023/12/10 11:47:58;;;;;;;91.10;55.40;;;;;;;3.76;81.16;100477.09;105441;1257;59639;-63
2023/12/10 11:50:25;;;;;;;93.40;53.70;;;;;;;3.65;80.93;100472.41;104625;1261;137978;-62
2023/12/10 11:52:52;;;;;;;94.50;55.90;;;;;;;3.54;80.95;100469.23;104695;1257;67926;-60
2023/12/10 11:55:19;;;;;;;87.60;53.90;;;;;;;3.46;81.03;100466.98;104736;1258;73042;-62
2023/12/10 11:57:45;;;;;;;95.20;56.20;;;;;;;3.40;81.05;100465.95;104587;1261;138319;-61
2023/12/10 12:00:13;;;;;;;95.10;56.40;;;;;;;3.33;81.15;100462.66;104909;1258;59939;-66
2023/12/10 12:02:46;;;;;;;95.30;56.00;;;;;;;3.26;81.16;100465.13;105621;1256;138041;-61
2023/12/10 12:05:14;;;;;;;92.50;56.60;;;;;;;3.21;81.12;100466.63;104955;1258;66055;-61
2023/12/10 12:07:42;;;;;;;93.70;54.10;;;;;;;3.16;81.18;100468.43;104948;1258;72754;-61
2023/12/10 12:10:09;;;;;;;92.50;54.40;;;;;;;3.12;81.26;100471.19;107546;1257;269794;-65
2023/12/10 12:12:41;;;;;;;96.20;57.40;;;;;;;3.09;81.32;100470.02;107960;1259;356895;-61
2023/12/10 12:15:11;;;;;;;99.30;58.10;;;;;;;3.08;81.52;100473.94;108637;1256;137986;-62
2023/12/10 12:17:38;;;;;;;95.10;56.80;;;;;;;3.09;81.45;100481.27;105940;1257;65133;-61
2023/12/10 12:20:19;;;;;;;101.60;58.10;;;;;;;3.06;81.32;100480.75;104878;1256;73170;-61
2023/12/10 12:22:46;;;;;;;101.00;59.80;;;;;;;3.02;81.41;100485.77;104659;1261;137771;-62
2023/12/10 12:25:13;;;;;;;96.80;59.30;;;;;;;3.02;81.49;100481.77;105876;1261;59573;-62
2023/12/10 12:27:39;;;;;;;102.70;58.00;;;;;;;3.02;81.61;100469.98;104624;1257;137943;-66
2023/12/10 12:30:07;;;;;;;104.00;60.40;;;;;;;3.01;81.53;100470.44;104841;1257;66854;-64
2023/12/10 12:32:34;;;;;;;102.50;60.00;;;;;;;2.98;81.45;100469.80;105599;1256;139597;-63
2023/12/10 12:35:00;;;;;;;99.80;59.40;;;;;;;2.95;81.37;100466.32;105028;1256;59369;-64
2023/12/10 12:37:27;;;;;;;97.30;58.40;;;;;;;2.93;81.49;100466.55;104790;1257;59902;-66